Time;durP1;ratioP1;P1;durP2;ratioP2;P2;SDS_P1;SDS_P2;PMS_P1;PMS_P2;Temp;Humidity;BMP_temperature;BMP_pressure;BME280_temperature;BME280_humidity;BME280_pressure;Samples;Min_cycle;Max_cycle;Signal;HPM_P1;HPM_P2
2022/08/16 00:00:41;;;;;;;45.65;34.85;;;20.50;99.90;;;;;;5046090;28;20087;-76
2022/08/16 00:03:08;;;;;;;54.05;37.10;;;20.40;99.90;;;;;;5062951;28;20028;-76
2022/08/16 00:05:33;;;;;;;51.45;35.40;;;20.40;99.90;;;;;;5068195;28;20032;-78
2022/08/16 00:07:59;;;;;;;47.95;34.83;;;20.40;99.90;;;;;;5062611;28;20018;-78
2022/08/16 00:10:27;;;;;;;53.38;34.75;;;20.40;99.90;;;;;;5053552;28;20017;-78
2022/08/16 00:12:54;;;;;;;52.60;34.85;;;20.40;99.90;;;;;;5060331;28;20040;-79
2022/08/16 00:15:27;;;;;;;49.15;34.33;;;20.40;99.90;;;;;;5056284;28;20445;-78
2022/08/16 00:17:53;;;;;;;41.55;32.30;;;20.40;99.90;;;;;;5035608;28;20089;-77
2022/08/16 00:20:20;;;;;;;49.55;33.63;;;20.40;99.90;;;;;;5057757;28;20021;-76
2022/08/16 00:22:46;;;;;;;47.95;32.42;;;20.40;99.90;;;;;;5073526;28;20036;-76
2022/08/16 00:25:17;;;;;;;39.95;30.50;;;20.40;99.90;;;;;;5056710;28;20029;-76
2022/08/16 00:27:42;;;;;;;45.03;30.77;;;20.50;99.90;;;;;;5061422;28;20129;-78
2022/08/16 00:30:11;;;;;;;40.13;31.98;;;20.50;99.90;;;;;;5054841;28;20562;-75
2022/08/16 00:32:39;;;;;;;44.47;30.30;;;20.40;99.90;;;;;;5072371;28;20029;-79
2022/08/16 00:35:07;;;;;;;40.08;30.00;;;20.40;99.90;;;;;;5072776;28;20033;-78
2022/08/16 00:37:33;;;;;;;43.13;29.58;;;20.50;99.90;;;;;;5065556;28;20017;-78
2022/08/16 00:39:59;;;;;;;39.75;29.50;;;20.40;99.90;;;;;;5072759;28;20078;-76
2022/08/16 00:42:30;;;;;;;38.88;29.33;;;20.40;99.90;;;;;;5058606;28;20035;-76
2022/08/16 00:45:05;;;;;;;35.83;28.15;;;20.40;99.90;;;;;;5053891;28;20408;-76
2022/08/16 00:47:31;;;;;;;39.95;28.63;;;20.40;99.90;;;;;;5054987;28;20022;-77
2022/08/16 00:49:57;;;;;;;39.40;27.58;;;20.40;99.90;;;;;;5062236;28;20051;-78
2022/08/16 00:52:23;;;;;;;39.13;28.65;;;20.40;99.90;;;;;;5061173;28;20020;-78
2022/08/16 00:54:48;;;;;;;37.95;29.98;;;20.40;99.90;;;;;;5060201;28;20435;-76
2022/08/16 00:57:14;;;;;;;33.00;27.25;;;20.40;99.90;;;;;;5051809;28;20728;-78
2022/08/16 00:59:40;;;;;;;40.53;29.58;;;20.40;99.90;;;;;;5071927;28;20021;-76
2022/08/16 01:02:08;;;;;;;41.67;30.10;;;20.30;99.90;;;;;;5064497;28;20025;-78
2022/08/16 01:04:34;;;;;;;41.53;29.92;;;20.40;99.90;;;;;;5067749;28;20048;-78
2022/08/16 01:07:02;;;;;;;38.67;29.60;;;20.40;99.90;;;;;;5063542;28;20070;-75
2022/08/16 01:09:34;;;;;;;40.67;29.73;;;20.40;99.90;;;;;;5071604;28;20021;-77
2022/08/16 01:12:03;;;;;;;36.15;28.75;;;20.30;99.90;;;;;;5066695;28;20028;-76
2022/08/16 01:14:35;;;;;;;37.28;27.67;;;20.30;99.90;;;;;;5071865;28;20534;-77
2022/08/16 01:17:02;;;;;;;36.20;28.90;;;20.30;99.90;;;;;;5049692;28;20059;-75
2022/08/16 01:19:46;;;;;;;39.13;30.33;;;20.30;99.90;;;;;;5071308;28;20054;-75
2022/08/16 01:22:32;;;;;;;38.15;30.90;;;20.20;99.90;;;;;;5071217;28;20495;-76
2022/08/16 01:25:04;;;;;;;36.17;28.83;;;20.20;99.90;;;;;;5070456;28;20051;-76
2022/08/16 01:27:35;;;;;;;39.22;29.30;;;20.10;99.90;;;;;;5064272;28;20481;-75
2022/08/16 01:30:09;;;;;;;44.17;30.75;;;20.10;99.90;;;;;;5058564;28;20313;-76
2022/08/16 01:32:41;;;;;;;39.95;29.25;;;20.10;99.90;;;;;;5068398;28;20025;-76
2022/08/16 01:35:14;;;;;;;40.35;30.75;;;20.10;99.90;;;;;;5069040;28;20033;-76
2022/08/16 01:37:43;;;;;;;41.97;31.35;;;20.10;99.90;;;;;;5068109;28;20091;-77
2022/08/16 01:40:10;;;;;;;37.33;29.73;;;20.00;99.90;;;;;;5065592;28;20086;-75
2022/08/16 01:42:36;;;;;;;38.00;30.85;;;20.00;99.90;;;;;;5071279;28;20040;-76
2022/08/16 01:45:03;;;;;;;39.88;29.80;;;20.00;99.90;;;;;;5070809;28;20055;-76
2022/08/16 01:47:30;;;;;;;42.00;31.15;;;20.00;99.90;;;;;;5071190;28;20380;-76
2022/08/16 01:49:55;;;;;;;42.30;31.35;;;20.00;99.90;;;;;;5070728;28;20032;-76
2022/08/16 01:52:21;;;;;;;40.63;31.52;;;19.90;99.90;;;;;;5059793;28;20036;-76
2022/08/16 01:54:47;;;;;;;41.22;31.95;;;19.90;99.90;;;;;;5068672;28;20031;-76
2022/08/16 01:57:13;;;;;;;38.92;30.58;;;19.90;99.90;;;;;;5070527;28;20017;-76
2022/08/16 01:59:40;;;;;;;44.72;32.30;;;19.90;99.90;;;;;;5070995;28;20060;-76
2022/08/16 02:02:05;;;;;;;40.35;30.60;;;19.90;99.90;;;;;;5071051;28;20048;-76
2022/08/16 02:04:33;;;;;;;46.60;33.35;;;19.80;99.90;;;;;;5057806;28;20056;-76
2022/08/16 02:07:02;;;;;;;41.92;32.28;;;19.80;99.90;;;;;;5062009;28;20341;-76
2022/08/16 02:09:28;;;;;;;42.33;31.85;;;19.80;99.90;;;;;;5062915;28;20020;-76
2022/08/16 02:11:56;;;;;;;41.63;31.02;;;19.80;99.90;;;;;;5056546;28;20024;-76
2022/08/16 02:14:25;;;;;;;44.38;33.00;;;19.70;99.90;;;;;;5070508;28;20028;-76
2022/08/16 02:16:51;;;;;;;41.60;32.83;;;19.70;99.90;;;;;;5067455;28;20021;-76
2022/08/16 02:19:18;;;;;;;43.03;32.90;;;19.70;99.90;;;;;;5070758;28;20020;-76
2022/08/16 02:21:49;;;;;;;44.50;33.75;;;19.70;99.90;;;;;;5051684;28;20028;-77
2022/08/16 02:24:15;;;;;;;45.95;34.72;;;19.70;99.90;;;;;;5066285;28;20078;-76
2022/08/16 02:26:41;;;;;;;45.80;33.92;;;19.70;99.90;;;;;;5057110;28;20025;-77
2022/08/16 02:29:06;;;;;;;46.67;35.88;;;19.70;99.90;;;;;;5058729;28;20021;-75
2022/08/16 02:31:32;;;;;;;45.35;34.97;;;19.70;99.90;;;;;;5059253;28;20469;-76
2022/08/16 02:33:57;;;;;;;45.85;33.67;;;19.60;99.90;;;;;;5070829;28;20485;-77
2022/08/16 02:36:23;;;;;;;49.22;35.97;;;19.70;99.90;;;;;;5073952;28;20029;-76
2022/08/16 02:38:48;;;;;;;48.17;35.00;;;19.70;99.90;;;;;;5074922;28;20055;-76
2022/08/16 02:41:15;;;;;;;46.85;35.00;;;19.70;99.90;;;;;;5074620;28;20034;-75
2022/08/16 02:43:41;;;;;;;47.88;34.40;;;19.60;99.90;;;;;;5074961;28;20029;-76
2022/08/16 02:46:08;;;;;;;46.05;34.33;;;19.60;99.90;;;;;;5074586;28;20020;-76
2022/08/16 02:48:35;;;;;;;46.65;35.97;;;19.60;99.90;;;;;;5071968;28;20052;-78
2022/08/16 02:51:02;;;;;;;50.47;38.13;;;19.50;99.90;;;;;;5060523;28;20481;-76
2022/08/16 02:53:29;;;;;;;53.42;39.83;;;19.50;99.90;;;;;;5074416;28;20032;-76
2022/08/16 02:55:54;;;;;;;55.90;38.67;;;19.50;99.90;;;;;;5073456;28;20025;-76
2022/08/16 02:58:22;;;;;;;52.35;38.13;;;19.50;99.90;;;;;;5054647;28;20023;-77
2022/08/16 03:00:48;;;;;;;54.88;39.55;;;19.50;99.90;;;;;;5070551;28;20391;-76
2022/08/16 03:03:13;;;;;;;53.88;40.20;;;19.50;99.90;;;;;;5069233;28;20102;-75
2022/08/16 03:05:39;;;;;;;55.40;39.90;;;19.40;99.90;;;;;;5066051;28;20025;-77
2022/08/16 03:08:05;;;;;;;55.38;40.33;;;19.40;99.90;;;;;;5065715;28;20071;-75
2022/08/16 03:10:31;;;;;;;52.60;38.72;;;19.40;99.90;;;;;;5054743;28;20025;-75
2022/08/16 03:12:57;;;;;;;53.22;37.88;;;19.40;99.90;;;;;;5062175;28;20396;-76
2022/08/16 03:15:23;;;;;;;50.47;38.55;;;19.40;99.90;;;;;;5071086;28;20517;-76
2022/08/16 03:17:49;;;;;;;57.95;38.58;;;19.40;99.90;;;;;;5070365;28;20074;-76
2022/08/16 03:20:15;;;;;;;62.53;40.35;;;19.30;99.90;;;;;;5059915;28;20032;-75
2022/08/16 03:22:41;;;;;;;59.08;41.30;;;19.40;99.90;;;;;;5073577;28;20028;-76
2022/08/16 03:25:11;;;;;;;62.47;45.63;;;19.30;99.90;;;;;;5062767;28;20017;-76
2022/08/16 03:27:37;;;;;;;65.45;45.40;;;19.30;99.90;;;;;;5064323;28;20039;-76
2022/08/16 03:30:15;;;;;;;68.05;47.25;;;19.30;99.90;;;;;;5059547;28;20052;-76
2022/08/16 03:32:40;;;;;;;63.75;46.00;;;19.30;99.90;;;;;;5072355;28;20037;-76
2022/08/16 03:35:07;;;;;;;69.10;48.50;;;19.30;99.90;;;;;;5071423;28;20047;-76
2022/08/16 03:37:33;;;;;;;63.85;47.22;;;19.30;99.90;;;;;;5068255;28;20122;-76
2022/08/16 03:39:58;;;;;;;64.50;46.95;;;19.30;99.90;;;;;;5063170;28;20051;-76
2022/08/16 03:42:24;;;;;;;74.47;50.78;;;19.20;99.90;;;;;;5074083;28;20032;-76
2022/08/16 03:44:50;;;;;;;79.40;51.22;;;19.30;99.90;;;;;;5072924;28;20056;-76
2022/08/16 03:47:17;;;;;;;73.45;51.80;;;19.20;99.90;;;;;;5059287;28;20111;-76
2022/08/16 03:49:43;;;;;;;77.22;52.83;;;19.20;99.90;;;;;;5067447;28;20032;-76
2022/08/16 03:52:08;;;;;;;78.75;53.40;;;19.20;99.90;;;;;;5062213;28;20025;-75
2022/08/16 03:54:34;;;;;;;74.00;52.83;;;19.20;99.90;;;;;;5073270;28;20060;-76
2022/08/16 03:57:00;;;;;;;76.50;53.13;;;19.10;99.90;;;;;;5072629;28;20024;-76
2022/08/16 03:59:26;;;;;;;79.70;52.45;;;19.10;99.90;;;;;;5058964;28;20021;-76
2022/08/16 04:01:52;;;;;;;73.97;52.38;;;19.10;99.90;;;;;;5073098;28;20415;-76
2022/08/16 04:04:17;;;;;;;74.43;53.72;;;19.10;99.90;;;;;;5073165;28;20077;-76
2022/08/16 04:06:43;;;;;;;79.20;54.42;;;19.10;99.90;;;;;;5059729;28;20078;-76
2022/08/16 04:09:08;;;;;;;74.47;53.13;;;19.00;99.90;;;;;;5053796;28;20485;-75
2022/08/16 04:11:34;;;;;;;73.38;53.10;;;19.00;99.90;;;;;;5067513;28;20029;-76
2022/08/16 04:14:00;;;;;;;73.72;52.40;;;19.00;99.90;;;;;;5059646;28;20033;-76
2022/08/16 04:16:25;;;;;;;74.85;52.50;;;19.00;99.90;;;;;;5068712;28;20043;-76
2022/08/16 04:18:51;;;;;;;70.00;51.80;;;18.90;99.90;;;;;;5066055;28;20021;-76
2022/08/16 04:21:16;;;;;;;70.13;49.42;;;18.90;99.90;;;;;;5054427;28;20078;-76
2022/08/16 04:23:42;;;;;;;69.25;50.10;;;18.90;99.90;;;;;;5058368;28;20020;-76
2022/08/16 04:26:08;;;;;;;66.57;50.08;;;18.90;99.90;;;;;;5060631;28;20021;-76
2022/08/16 04:28:33;;;;;;;68.68;48.60;;;18.90;99.90;;;;;;5064436;28;20021;-76
2022/08/16 04:30:59;;;;;;;65.28;49.15;;;18.90;99.90;;;;;;5063044;28;20432;-76
2022/08/16 04:33:25;;;;;;;66.85;48.17;;;18.90;99.90;;;;;;5068035;28;20100;-76
2022/08/16 04:35:52;;;;;;;66.88;48.45;;;18.90;99.90;;;;;;5069900;28;20492;-76
2022/08/16 04:38:18;;;;;;;66.35;49.47;;;18.90;99.90;;;;;;5046567;28;20060;-75
2022/08/16 04:40:46;;;;;;;67.72;49.80;;;18.80;99.90;;;;;;5058038;28;20063;-76
2022/08/16 04:43:13;;;;;;;67.65;48.97;;;18.90;99.90;;;;;;5055752;28;20064;-76
2022/08/16 04:45:39;;;;;;;68.07;48.47;;;18.90;99.90;;;;;;5044755;28;20028;-76
2022/08/16 04:48:05;;;;;;;67.32;48.85;;;18.80;99.90;;;;;;5046685;28;20021;-76
2022/08/16 04:50:30;;;;;;;65.32;47.15;;;18.90;99.90;;;;;;5057506;28;20095;-76
2022/08/16 04:52:57;;;;;;;66.03;47.17;;;18.80;99.90;;;;;;5050899;28;20022;-76
2022/08/16 04:55:25;;;;;;;66.35;46.25;;;18.90;99.90;;;;;;5049515;28;20021;-75
2022/08/16 04:57:52;;;;;;;64.43;46.80;;;18.90;99.90;;;;;;5057574;28;20404;-76
2022/08/16 05:00:24;;;;;;;60.88;45.83;;;18.90;99.90;;;;;;5057353;28;20021;-76
2022/08/16 05:02:52;;;;;;;65.80;44.63;;;18.90;99.90;;;;;;5056123;28;20102;-76
2022/08/16 05:05:19;;;;;;;63.75;46.28;;;18.90;99.90;;;;;;5055221;28;20024;-76
2022/08/16 05:07:45;;;;;;;64.00;47.15;;;18.90;99.90;;;;;;5056500;28;20064;-76
2022/08/16 05:10:11;;;;;;;58.58;43.45;;;18.90;99.90;;;;;;5038259;28;20031;-76
2022/08/16 05:12:37;;;;;;;64.22;46.85;;;18.90;99.90;;;;;;5040222;28;20021;-76
2022/08/16 05:15:05;;;;;;;67.53;47.42;;;18.90;99.90;;;;;;5050960;28;20052;-76
2022/08/16 05:17:31;;;;;;;64.72;47.30;;;18.90;99.90;;;;;;5034592;28;20105;-76
2022/08/16 05:19:57;;;;;;;62.70;47.00;;;18.90;99.90;;;;;;5048231;28;20048;-76
2022/08/16 05:22:23;;;;;;;70.25;48.55;;;18.90;99.90;;;;;;5051316;28;20029;-76
2022/08/16 05:24:49;;;;;;;66.82;46.97;;;18.90;99.90;;;;;;5041823;28;20021;-76
2022/08/16 05:27:15;;;;;;;66.72;47.05;;;19.00;99.90;;;;;;5050611;28;20049;-76
2022/08/16 05:29:41;;;;;;;69.85;48.55;;;19.00;99.90;;;;;;5038955;28;20495;-77
2022/08/16 05:32:06;;;;;;;67.18;48.63;;;19.00;99.90;;;;;;5045743;28;20057;-76
2022/08/16 05:34:32;;;;;;;71.32;48.25;;;19.00;99.90;;;;;;5038788;28;20381;-76
2022/08/16 05:36:58;;;;;;;70.78;48.83;;;19.00;99.90;;;;;;5045586;28;20029;-76
2022/08/16 05:39:25;;;;;;;71.53;49.10;;;19.10;99.90;;;;;;5059979;28;20128;-76
2022/08/16 05:41:51;;;;;;;78.57;50.60;;;19.10;99.90;;;;;;5051466;28;20033;-76
2022/08/16 05:44:20;;;;;;;79.28;51.63;;;19.10;99.90;;;;;;5066120;28;20056;-76
2022/08/16 05:46:45;;;;;;;70.63;50.05;;;19.20;99.90;;;;;;5068846;28;20025;-76
2022/08/16 05:49:15;;;;;;;69.93;49.95;;;19.20;99.90;;;;;;5070898;28;20391;-76
2022/08/16 05:51:42;;;;;;;72.90;49.65;;;19.20;99.90;;;;;;5070483;28;20055;-76
2022/08/16 05:54:10;;;;;;;72.35;50.92;;;19.20;99.90;;;;;;5061057;28;20511;-76
2022/08/16 05:56:36;;;;;;;70.88;49.03;;;19.30;99.90;;;;;;5063870;28;20023;-76
2022/08/16 05:59:02;;;;;;;72.57;49.42;;;19.30;99.90;;;;;;5050739;28;20036;-76
2022/08/16 06:01:28;;;;;;;78.43;51.15;;;19.30;99.90;;;;;;5069200;28;20031;-76
2022/08/16 06:03:54;;;;;;;78.38;52.25;;;19.40;99.90;;;;;;5070138;28;20021;-76
2022/08/16 06:06:19;;;;;;;76.38;52.40;;;19.40;99.90;;;;;;5055904;28;20036;-77
2022/08/16 06:08:45;;;;;;;83.03;52.20;;;19.40;99.90;;;;;;5065024;28;20095;-77
2022/08/16 06:11:11;;;;;;;77.75;53.22;;;19.50;99.90;;;;;;5055486;28;20032;-77
2022/08/16 06:13:36;;;;;;;79.13;53.47;;;19.50;99.90;;;;;;5042383;28;20024;-76
2022/08/16 06:16:04;;;;;;;81.50;54.40;;;19.50;99.90;;;;;;5057421;28;20029;-77
2022/08/16 06:18:30;;;;;;;78.90;53.53;;;19.60;99.90;;;;;;5068887;28;20540;-76
2022/08/16 06:20:56;;;;;;;81.75;53.97;;;19.60;99.90;;;;;;5066305;28;20096;-76
2022/08/16 06:23:22;;;;;;;84.32;54.97;;;19.60;99.90;;;;;;5067288;28;20133;-77
2022/08/16 06:25:48;;;;;;;87.45;56.08;;;19.60;99.90;;;;;;5059609;28;20024;-76
2022/08/16 06:28:14;;;;;;;86.88;55.05;;;19.70;99.90;;;;;;5070794;28;20032;-75
2022/08/16 06:30:39;;;;;;;82.05;55.45;;;19.70;99.90;;;;;;5069775;28;20352;-76
2022/08/16 06:33:05;;;;;;;87.20;54.25;;;19.80;99.90;;;;;;5068756;28;20029;-75
2022/08/16 06:35:31;;;;;;;85.10;53.33;;;19.80;99.90;;;;;;5070108;28;20395;-76
2022/08/16 06:37:56;;;;;;;93.20;56.45;;;19.90;99.90;;;;;;5044635;28;20091;-75
2022/08/16 06:40:23;;;;;;;87.97;55.83;;;19.90;99.90;;;;;;5036146;28;20029;-75
2022/08/16 06:42:54;;;;;;;87.93;56.45;;;19.90;99.90;;;;;;5064430;28;20013;-76
2022/08/16 06:45:21;;;;;;;91.68;56.08;;;20.00;99.90;;;;;;5060908;28;20110;-76
2022/08/16 06:47:46;;;;;;;88.30;55.90;;;20.00;99.90;;;;;;5056058;28;20016;-75
2022/08/16 06:50:12;;;;;;;95.60;58.25;;;20.10;99.90;;;;;;5070166;28;20552;-76
2022/08/16 06:52:38;;;;;;;98.30;57.90;;;20.10;99.90;;;;;;5066619;28;20025;-76
2022/08/16 06:55:06;;;;;;;93.35;56.00;;;20.20;99.90;;;;;;5058331;28;20025;-76
2022/08/16 06:57:31;;;;;;;93.18;56.05;;;20.20;99.90;;;;;;5070413;28;20438;-75
2022/08/16 06:59:57;;;;;;;91.18;57.50;;;20.30;99.90;;;;;;5050491;28;20025;-75
2022/08/16 07:02:23;;;;;;;98.70;58.28;;;20.30;99.90;;;;;;5069364;28;20025;-75
2022/08/16 07:04:48;;;;;;;95.88;57.63;;;20.30;99.90;;;;;;5067929;28;20252;-75
2022/08/16 07:07:14;;;;;;;95.93;57.67;;;20.40;99.90;;;;;;5060754;28;20053;-76
2022/08/16 07:09:39;;;;;;;97.75;57.72;;;20.50;99.90;;;;;;5055870;28;20031;-75
2022/08/16 07:12:05;;;;;;;98.47;55.92;;;20.50;99.90;;;;;;5062090;28;20044;-76
2022/08/16 07:14:32;;;;;;;93.22;57.75;;;20.60;99.90;;;;;;5068976;28;20029;-75
2022/08/16 07:16:58;;;;;;;94.10;56.72;;;20.70;99.90;;;;;;5057140;28;20036;-76
2022/08/16 07:19:26;;;;;;;91.35;56.97;;;20.70;99.90;;;;;;5071895;28;20021;-76
2022/08/16 07:21:52;;;;;;;92.18;55.80;;;20.70;99.90;;;;;;5073226;28;20032;-76
2022/08/16 07:24:17;;;;;;;85.43;55.97;;;20.80;99.90;;;;;;5055195;28;20024;-76
2022/08/16 07:26:43;;;;;;;83.93;54.97;;;20.90;99.90;;;;;;5071437;28;20036;-75
2022/08/16 07:29:09;;;;;;;79.05;53.00;;;21.00;99.90;;;;;;5073145;28;20487;-76
2022/08/16 07:31:34;;;;;;;81.85;54.28;;;21.10;99.90;;;;;;5064703;28;20037;-76
2022/08/16 07:34:00;;;;;;;73.30;50.63;;;21.20;99.90;;;;;;5042134;28;20021;-75
2022/08/16 07:36:26;;;;;;;83.13;52.55;;;21.30;99.90;;;;;;5046393;28;20358;-76
2022/08/16 07:38:52;;;;;;;77.05;50.97;;;21.40;99.90;;;;;;5067669;28;20098;-75
2022/08/16 07:41:18;;;;;;;79.93;51.22;;;21.50;99.90;;;;;;5066161;28;20048;-76
2022/08/16 07:43:45;;;;;;;80.53;53.38;;;21.50;99.90;;;;;;5061979;28;20017;-76
2022/08/16 07:46:10;;;;;;;82.00;52.95;;;21.60;99.90;;;;;;5071552;28;20029;-77
2022/08/16 07:48:36;;;;;;;77.20;51.20;;;21.70;99.90;;;;;;5073775;28;20383;-76
2022/08/16 07:51:02;;;;;;;79.63;52.33;;;21.70;99.90;;;;;;5073063;28;20086;-76
2022/08/16 07:53:29;;;;;;;74.95;51.60;;;21.80;99.90;;;;;;5064783;28;20543;-76
2022/08/16 07:55:56;;;;;;;85.35;52.53;;;21.80;99.90;;;;;;5060818;28;20383;-76
2022/08/16 07:58:22;;;;;;;80.97;53.05;;;21.90;99.90;;;;;;5071906;28;20026;-76
2022/08/16 08:00:47;;;;;;;81.03;51.65;;;22.00;99.90;;;;;;5073011;28;20029;-77
2022/08/16 08:03:13;;;;;;;76.68;52.20;;;22.10;99.90;;;;;;5067316;28;20457;-77
2022/08/16 08:05:39;;;;;;;82.38;53.38;;;22.20;99.90;;;;;;5059297;28;20070;-77
2022/08/16 08:08:05;;;;;;;73.80;49.40;;;22.30;99.90;;;;;;5040585;28;20023;-77
2022/08/16 08:10:30;;;;;;;76.15;49.88;;;22.30;99.90;;;;;;5072293;28;20091;-76
2022/08/16 08:12:56;;;;;;;77.00;50.13;;;22.40;99.90;;;;;;5058181;28;20041;-77
2022/08/16 08:15:23;;;;;;;80.50;53.53;;;22.50;99.90;;;;;;5054388;28;20032;-76
2022/08/16 08:17:49;;;;;;;80.05;52.40;;;22.60;99.90;;;;;;5072748;28;20024;-76
2022/08/16 08:20:18;;;;;;;83.22;53.67;;;22.60;99.90;;;;;;5054886;28;20055;-77
2022/08/16 08:22:46;;;;;;;81.50;53.92;;;22.60;99.90;;;;;;5071461;28;20028;-77
2022/08/16 08:25:13;;;;;;;73.90;50.22;;;22.60;99.90;;;;;;5059922;28;20043;-76
2022/08/16 08:27:38;;;;;;;77.15;51.03;;;22.70;99.90;;;;;;5062649;28;20056;-77
2022/08/16 08:30:05;;;;;;;75.20;50.05;;;22.80;99.90;;;;;;5050076;28;20075;-77
2022/08/16 08:32:31;;;;;;;74.63;48.63;;;22.90;99.90;;;;;;5060133;28;20032;-77
2022/08/16 08:34:58;;;;;;;67.88;48.63;;;23.00;99.90;;;;;;5066902;28;20051;-76
2022/08/16 08:37:26;;;;;;;72.95;48.50;;;23.10;99.90;;;;;;5069216;28;20166;-77
2022/08/16 08:39:52;;;;;;;72.40;47.55;;;23.10;99.90;;;;;;5060963;28;20063;-76
2022/08/16 08:42:18;;;;;;;66.35;47.10;;;23.20;99.90;;;;;;5053668;28;20032;-76
2022/08/16 08:44:43;;;;;;;67.95;45.80;;;23.40;99.90;;;;;;5070611;28;20043;-76
2022/08/16 08:47:09;;;;;;;70.30;46.95;;;23.40;99.90;;;;;;5069799;28;20038;-76
2022/08/16 08:49:36;;;;;;;63.50;46.95;;;23.60;99.90;;;;;;5069991;28;20024;-76
2022/08/16 08:52:03;;;;;;;65.38;45.80;;;23.70;99.90;;;;;;5070719;28;20040;-76
2022/08/16 08:54:29;;;;;;;65.03;45.45;;;23.80;99.90;;;;;;5071171;28;20492;-77
2022/08/16 08:56:55;;;;;;;64.75;45.40;;;23.90;99.90;;;;;;5071201;28;20020;-76
2022/08/16 08:59:22;;;;;;;62.78;46.22;;;23.90;99.90;;;;;;5071845;28;20423;-77
2022/08/16 09:01:49;;;;;;;61.15;45.72;;;24.10;99.90;;;;;;5069013;28;20033;-76
2022/08/16 09:04:16;;;;;;;63.63;44.75;;;24.10;99.90;;;;;;5060424;28;21709;-76
2022/08/16 09:06:42;;;;;;;56.05;41.80;;;24.20;99.90;;;;;;5047925;28;20059;-77
2022/08/16 09:09:08;;;;;;;56.90;40.70;;;24.30;99.90;;;;;;5058044;28;20019;-76
2022/08/16 09:11:36;;;;;;;56.83;41.08;;;24.50;99.90;;;;;;5069288;28;20480;-76
2022/08/16 09:14:02;;;;;;;54.35;41.20;;;24.50;99.90;;;;;;5066635;28;20107;-77
2022/08/16 09:16:28;;;;;;;58.67;40.97;;;24.70;99.90;;;;;;5065349;28;20028;-75
2022/08/16 09:18:54;;;;;;;56.78;40.13;;;24.80;99.90;;;;;;5067659;28;20070;-76
2022/08/16 09:21:20;;;;;;;55.22;39.95;;;25.00;99.90;;;;;;5071227;28;20016;-76
2022/08/16 09:23:46;;;;;;;53.22;39.97;;;25.10;99.90;;;;;;5071033;28;20795;-77
2022/08/16 09:26:16;;;;;;;53.60;41.97;;;25.20;99.90;;;;;;5072236;28;20020;-77
2022/08/16 09:28:44;;;;;;;50.70;39.05;;;25.30;99.90;;;;;;5066665;28;20027;-77
2022/08/16 09:31:12;;;;;;;48.77;36.80;;;25.50;99.90;;;;;;5065367;28;20020;-75
2022/08/16 09:33:38;;;;;;;50.22;37.10;;;25.50;99.90;;;;;;5057805;28;20032;-75
2022/08/16 09:36:06;;;;;;;47.90;36.75;;;25.50;99.90;;;;;;5039724;28;20028;-77
2022/08/16 09:38:34;;;;;;;49.42;35.70;;;25.70;99.90;;;;;;5071402;28;20059;-78
2022/08/16 09:41:01;;;;;;;52.22;38.95;;;25.80;99.90;;;;;;5070181;28;20036;-77
2022/08/16 09:43:27;;;;;;;50.53;37.78;;;25.90;99.90;;;;;;5052114;28;20425;-76
2022/08/16 09:45:52;;;;;;;49.30;36.75;;;26.00;99.90;;;;;;5033813;28;20103;-76
2022/08/16 09:48:19;;;;;;;51.88;35.30;;;26.10;99.90;;;;;;5070580;28;20058;-76
2022/08/16 09:50:45;;;;;;;47.65;35.67;;;26.10;99.90;;;;;;5070753;28;20028;-76
2022/08/16 09:53:15;;;;;;;48.38;34.78;;;26.20;99.90;;;;;;5070280;28;20029;-76
2022/08/16 09:55:43;;;;;;;43.47;32.72;;;26.30;99.90;;;;;;5070609;28;20024;-76
2022/08/16 09:58:09;;;;;;;44.40;33.10;;;26.30;99.90;;;;;;5070848;28;20073;-77
2022/08/16 10:00:34;;;;;;;43.83;32.50;;;26.30;99.90;;;;;;5063366;28;20021;-77
2022/08/16 10:03:00;;;;;;;48.75;35.30;;;26.30;99.90;;;;;;5065299;28;20071;-76
2022/08/16 10:05:26;;;;;;;46.78;34.70;;;26.30;99.90;;;;;;5070664;28;20594;-77
2022/08/16 10:07:51;;;;;;;40.63;32.58;;;26.40;99.90;;;;;;5070969;28;20043;-76
2022/08/16 10:10:21;;;;;;;45.25;32.17;;;26.40;99.90;;;;;;5062583;28;20017;-76
2022/08/16 10:15:33;;;;;;;43.95;32.80;;;26.50;99.90;;;;;;5053357;28;20165;-76
2022/08/16 10:17:59;;;;;;;40.60;31.17;;;26.60;99.90;;;;;;5069247;28;20047;-76
2022/08/16 10:20:26;;;;;;;45.40;32.20;;;26.50;99.90;;;;;;5056970;28;20021;-77
2022/08/16 10:22:52;;;;;;;39.92;31.80;;;26.60;99.90;;;;;;5058320;28;20033;-77
2022/08/16 10:25:18;;;;;;;41.80;33.00;;;26.60;99.90;;;;;;5064360;28;20032;-76
2022/08/16 10:27:46;;;;;;;40.25;30.20;;;26.60;99.90;;;;;;5061511;28;20021;-75
2022/08/16 10:30:14;;;;;;;40.88;26.60;;;26.50;99.90;;;;;;5058901;28;20036;-76
2022/08/16 10:32:39;;;;;;;37.95;26.98;;;26.50;99.90;;;;;;5065355;28;20025;-76
2022/08/16 10:35:05;;;;;;;36.53;25.15;;;26.60;99.90;;;;;;5070087;28;20083;-76
2022/08/16 10:37:31;;;;;;;39.03;27.45;;;26.50;99.90;;;;;;5070424;28;20044;-77
2022/08/16 10:39:57;;;;;;;37.55;27.35;;;26.60;99.90;;;;;;5061459;28;20443;-77
2022/08/16 10:42:22;;;;;;;36.60;27.25;;;26.50;99.90;;;;;;5065490;28;20086;-77
2022/08/16 10:44:48;;;;;;;34.35;27.10;;;26.60;99.90;;;;;;5050909;28;20032;-76
2022/08/16 10:47:14;;;;;;;36.10;26.38;;;26.50;99.90;;;;;;5070291;28;20070;-76
2022/08/16 10:49:40;;;;;;;38.20;27.55;;;26.50;99.90;;;;;;5068770;28;20024;-78
2022/08/16 10:52:06;;;;;;;35.95;25.95;;;26.40;99.90;;;;;;5041110;28;20056;-77
2022/08/16 10:54:32;;;;;;;36.42;27.27;;;26.40;99.90;;;;;;5071976;28;20078;-76
2022/08/16 10:56:58;;;;;;;34.63;26.95;;;26.40;99.90;;;;;;5069673;28;20032;-77
2022/08/16 10:59:24;;;;;;;38.03;27.13;;;26.40;99.90;;;;;;5074231;28;20426;-77
2022/08/16 11:01:50;;;;;;;39.75;26.75;;;26.30;99.90;;;;;;5074197;28;20032;-77
2022/08/16 11:04:17;;;;;;;37.10;26.08;;;26.30;99.90;;;;;;5060546;28;20492;-77
2022/08/16 11:06:43;;;;;;;32.58;25.85;;;26.30;99.90;;;;;;5060082;28;20031;-77
2022/08/16 11:09:08;;;;;;;39.60;29.25;;;26.30;99.90;;;;;;5073431;28;20020;-78
2022/08/16 11:11:34;;;;;;;34.55;26.55;;;26.30;99.90;;;;;;5070187;28;20056;-78
2022/08/16 11:13:59;;;;;;;37.97;26.38;;;26.30;99.90;;;;;;5062830;28;20469;-76
2022/08/16 11:16:27;;;;;;;35.40;25.58;;;26.30;99.90;;;;;;5054151;28;20013;-75
2022/08/16 11:18:53;;;;;;;30.23;23.08;;;26.30;99.90;;;;;;5043857;28;20024;-76
2022/08/16 11:21:20;;;;;;;36.08;26.02;;;26.50;99.90;;;;;;5069972;28;20017;-77
2022/08/16 11:23:45;;;;;;;35.58;25.13;;;26.70;99.90;;;;;;5054625;28;20108;-76
2022/08/16 11:26:11;;;;;;;34.53;24.60;;;26.80;99.90;;;;;;5073728;28;20068;-75
2022/08/16 11:28:36;;;;;;;30.80;22.08;;;27.00;99.90;;;;;;5060507;28;20028;-76
2022/08/16 11:31:02;;;;;;;36.40;24.85;;;27.10;99.90;;;;;;5074061;28;20020;-77
2022/08/16 11:33:28;;;;;;;32.08;23.70;;;27.30;99.90;;;;;;5069424;28;20021;-77
2022/08/16 11:35:53;;;;;;;35.58;24.25;;;27.40;99.90;;;;;;5067110;28;20507;-77
2022/08/16 11:38:21;;;;;;;36.08;23.42;;;27.50;99.90;;;;;;5063644;28;20128;-77
2022/08/16 11:40:55;;;;;;;39.42;24.95;;;27.50;99.90;;;;;;5060310;28;20021;-77
2022/08/16 11:43:26;;;;;;;30.63;22.93;;;27.60;99.90;;;;;;5063411;28;20017;-76
2022/08/16 11:45:53;;;;;;;38.55;24.60;;;27.70;99.90;;;;;;5073213;28;20028;-77
2022/08/16 11:48:19;;;;;;;33.03;24.50;;;27.50;99.90;;;;;;5055080;28;20400;-77
2022/08/16 11:50:46;;;;;;;32.13;21.27;;;27.40;99.90;;;;;;5059481;28;20021;-77
2022/08/16 11:53:13;;;;;;;26.60;19.23;;;27.30;99.90;;;;;;5055352;28;20032;-76
2022/08/16 11:55:41;;;;;;;29.27;21.17;;;27.30;99.90;;;;;;5069892;28;20021;-76
2022/08/16 11:58:08;;;;;;;28.42;21.77;;;27.30;99.90;;;;;;5064617;28;20070;-77
2022/08/16 12:00:36;;;;;;;28.58;20.77;;;27.30;99.90;;;;;;5073189;28;20051;-77
2022/08/16 12:03:02;;;;;;;30.35;22.77;;;27.30;99.90;;;;;;5063349;28;20020;-77
2022/08/16 12:05:29;;;;;;;32.00;22.63;;;27.30;99.90;;;;;;5052897;28;20052;-76
2022/08/16 12:07:56;;;;;;;28.15;21.13;;;27.30;99.90;;;;;;5053606;28;20021;-76
2022/08/16 12:10:23;;;;;;;33.40;22.98;;;27.20;99.90;;;;;;5062203;28;20500;-77
2022/08/16 12:12:50;;;;;;;36.05;24.48;;;27.20;99.90;;;;;;5072607;28;20032;-77
2022/08/16 12:15:16;;;;;;;36.47;24.63;;;27.10;99.90;;;;;;5072921;28;20020;-77
2022/08/16 12:17:42;;;;;;;37.22;25.80;;;27.00;99.90;;;;;;5072831;28;20033;-78
2022/08/16 12:20:12;;;;;;;36.97;25.65;;;27.10;99.90;;;;;;5055026;28;20040;-77
2022/08/16 12:22:38;;;;;;;32.42;22.88;;;27.00;99.90;;;;;;5070061;28;20455;-78
2022/08/16 12:25:10;;;;;;;30.33;22.65;;;27.00;99.90;;;;;;5067214;28;20033;-77
2022/08/16 12:27:36;;;;;;;35.88;26.00;;;27.00;99.90;;;;;;5072520;28;20016;-77